createdAt,value
2018-12-11T00:01:54.097Z,88.24
2018-12-11T00:04:22.795Z,90.25
2018-12-11T00:06:56.573Z,89.37
2018-12-11T00:09:27.709Z,89.59
2018-12-11T00:11:58.641Z,89.19
2018-12-11T00:14:33.700Z,88.36
2018-12-11T00:17:03.158Z,88.54
2018-12-11T00:19:36.824Z,89.11
2018-12-11T00:22:07.122Z,89.15
2018-12-11T00:24:36.353Z,88.65
2018-12-11T00:27:10.331Z,89.01
2018-12-11T00:29:38.851Z,89.28
2018-12-11T00:32:09.806Z,88.93
2018-12-11T00:34:43.658Z,89.16
2018-12-11T00:37:12.116Z,89.15
2018-12-11T00:39:47.267Z,88.80
2018-12-11T00:42:20.837Z,87.93
2018-12-11T00:44:53.949Z,88.86
2018-12-11T00:47:27.031Z,89.34
2018-12-11T00:50:00.907Z,88.82
2018-12-11T00:52:34.808Z,88.75
2018-12-11T00:55:20.184Z,89.39
2018-12-11T00:57:50.810Z,88.28
2018-12-11T01:00:21.948Z,89.01
2018-12-11T01:02:55.931Z,89.04
2018-12-11T01:05:25.124Z,88.12
2018-12-11T01:07:58.587Z,88.45
2018-12-11T01:10:29.806Z,89.26
2018-12-11T01:13:03.511Z,88.47
2018-12-11T01:15:35.481Z,88.58
2018-12-11T01:18:09.148Z,88.21
2018-12-11T01:20:40.399Z,88.33
2018-12-11T01:23:10.709Z,88.21
2018-12-11T01:25:44.608Z,87.66
2018-12-11T01:28:18.046Z,87.46
2018-12-11T01:30:48.391Z,87.39
2018-12-11T01:33:17.388Z,86.84
2018-12-11T01:35:56.385Z,87.16
2018-12-11T01:38:30.264Z,86.78
2018-12-11T01:41:01.307Z,86.85
2018-12-11T01:43:35.137Z,87.50
2018-12-11T01:46:09.141Z,86.43
2018-12-11T01:48:43.132Z,86.34
2018-12-11T01:51:15.486Z,86.22
2018-12-11T01:53:48.825Z,86.84
2018-12-11T01:56:21.991Z,86.16
2018-12-11T02:01:42.092Z,86.34
2018-12-11T02:07:07.969Z,86.11
2018-12-11T02:09:48.039Z,86.18
2018-12-11T02:12:38.964Z,87.19
2018-12-11T02:18:02.096Z,87.67
2018-12-11T02:20:42.143Z,87.12
2018-12-11T02:23:31.076Z,87.78
2018-12-11T02:26:04.860Z,87.40
2018-12-11T02:28:32.267Z,86.88
2018-12-11T02:31:01.074Z,87.05
2018-12-11T02:42:21.688Z,87.60
2018-12-11T02:44:56.765Z,87.52
2018-12-11T02:47:27.990Z,87.39
2018-12-11T02:50:11.947Z,88.00
2018-12-11T02:52:41.040Z,88.01
2018-12-11T02:55:31.465Z,87.19
2018-12-11T02:58:05.136Z,87.65
2018-12-11T03:03:25.203Z,87.57
2018-12-11T03:08:57.762Z,88.47
2018-12-11T03:11:31.549Z,88.32
2018-12-11T03:13:58.952Z,88.50
2018-12-11T03:16:29.915Z,87.37
2018-12-11T03:19:16.249Z,87.25
2018-12-11T03:22:02.568Z,87.51
2018-12-11T03:30:31.533Z,88.31
2018-12-11T03:33:04.757Z,88.78
2018-12-11T03:38:30.719Z,87.71
2018-12-11T03:41:10.978Z,87.57
2018-12-11T03:43:48.766Z,87.90
2018-12-11T03:46:19.888Z,87.63
2018-12-11T03:48:53.929Z,87.65
2018-12-11T03:57:19.038Z,87.13
2018-12-11T03:59:46.456Z,87.13
2018-12-11T04:02:20.044Z,86.53
2018-12-11T04:04:53.300Z,86.64
2018-12-11T04:07:33.365Z,87.35
2018-12-11T04:10:04.876Z,87.13
2018-12-11T04:12:38.487Z,86.96
2018-12-11T04:15:12.203Z,86.26
2018-12-11T04:17:45.608Z,87.84
2018-12-11T04:20:14.587Z,87.08
2018-12-11T04:22:48.372Z,87.38
2018-12-11T04:25:22.286Z,86.65
2018-12-11T04:27:58.175Z,86.65
2018-12-11T04:30:31.256Z,87.53
2018-12-11T04:33:00.460Z,87.26
2018-12-11T04:35:29.273Z,87.31
2018-12-11T04:38:02.952Z,87.16
2018-12-11T04:40:33.989Z,87.71
2018-12-11T04:43:07.924Z,86.13
2018-12-11T04:45:41.925Z,86.75
2018-12-11T04:48:15.196Z,85.98
2018-12-11T04:50:45.532Z,87.48
2018-12-11T04:53:16.661Z,86.98
2018-12-11T04:55:50.581Z,88.09
2018-12-11T04:58:21.141Z,87.89
2018-12-11T05:00:51.975Z,89.88
2018-12-11T05:03:25.986Z,90.02
2018-12-11T05:05:56.428Z,89.86
2018-12-11T05:08:25.343Z,89.77
2018-12-11T05:10:56.475Z,89.44
2018-12-11T05:13:36.925Z,89.44
2018-12-11T05:16:07.624Z,89.42
2018-12-11T05:18:38.552Z,89.38
2018-12-11T05:21:07.584Z,89.04
2018-12-11T05:23:38.600Z,88.79
2018-12-11T05:26:09.540Z,88.95
2018-12-11T05:28:42.642Z,87.52
2018-12-11T05:31:13.802Z,87.58
2018-12-11T05:33:57.449Z,87.76
2018-12-11T05:36:30.844Z,89.20
2018-12-11T05:39:00.127Z,88.55
2018-12-11T05:41:33.830Z,88.06
2018-12-11T05:44:06.971Z,88.14
2018-12-11T05:46:37.380Z,87.87
2018-12-11T05:49:11.276Z,88.66
2018-12-11T05:51:45.321Z,88.93
2018-12-11T05:54:19.200Z,88.91
2018-12-11T05:56:52.422Z,88.84
2018-12-11T05:59:25.763Z,87.88
2018-12-11T06:01:56.859Z,87.80
2018-12-11T06:04:30.760Z,87.67
2018-12-11T06:07:04.669Z,87.49
2018-12-11T06:09:38.709Z,87.21
2018-12-11T06:12:12.925Z,86.96
2018-12-11T06:14:46.589Z,87.07
2018-12-11T06:17:20.582Z,87.45
2018-12-11T06:19:49.806Z,87.16
2018-12-11T06:22:23.725Z,86.06
2018-12-11T06:24:57.592Z,86.56
2018-12-11T06:27:37.852Z,86.32
2018-12-11T06:30:09.713Z,85.91
2018-12-11T06:32:39.346Z,86.75
2018-12-11T06:35:13.169Z,86.61
2018-12-11T06:37:55.449Z,86.65
2018-12-11T06:43:27.926Z,88.22
2018-12-11T06:49:00.155Z,88.59
2018-12-11T06:51:30.910Z,89.37
2018-12-11T06:54:01.932Z,88.33
2018-12-11T06:56:31.995Z,88.79
2018-12-11T06:59:02.988Z,89.25
2018-12-11T07:04:43.435Z,89.89
2018-12-11T07:07:22.736Z,89.90
2018-12-11T07:10:03.326Z,89.36
2018-12-11T07:12:33.889Z,88.19
2018-12-11T07:15:07.911Z,89.31
2018-12-11T07:17:41.893Z,89.25
2018-12-11T07:20:13.157Z,88.22
2018-12-11T07:22:46.861Z,88.75
2018-12-11T07:25:20.777Z,88.12
2018-12-11T07:27:54.678Z,88.72
2018-12-11T07:30:25.005Z,87.78
2018-12-11T07:32:58.919Z,86.41
2018-12-11T07:35:28.044Z,87.36
2018-12-11T07:38:01.257Z,86.46
2018-12-11T07:40:31.680Z,87.14
2018-12-11T07:43:10.365Z,86.54
2018-12-11T07:45:40.768Z,85.87
2018-12-11T07:48:14.749Z,86.09
2018-12-11T07:50:45.062Z,85.21
2018-12-11T07:53:16.112Z,85.44
2018-12-11T07:55:49.925Z,85.47
2018-12-11T07:58:23.867Z,87.11
2018-12-11T08:00:54.495Z,86.24
2018-12-11T08:06:19.979Z,85.16
2018-12-11T08:08:53.819Z,86.71
2018-12-11T08:11:24.459Z,86.27
2018-12-11T08:13:51.836Z,86.98
2018-12-11T08:16:19.672Z,87.04
2018-12-11T08:18:47.052Z,87.18
2018-12-11T08:21:20.941Z,87.08
2018-12-11T08:23:54.158Z,85.15
2018-12-11T08:26:35.054Z,86.51
2018-12-11T08:29:08.373Z,85.53
2018-12-11T08:31:39.656Z,86.19
2018-12-11T08:34:10.880Z,86.79
2018-12-11T08:36:44.115Z,85.60
2018-12-11T08:39:18.062Z,84.32
2018-12-11T08:41:49.331Z,85.57
2018-12-11T08:44:22.950Z,85.55
2018-12-11T08:46:56.744Z,85.18
2018-12-11T08:49:25.274Z,86.03
2018-12-11T08:52:02.388Z,85.97
2018-12-11T08:54:35.491Z,85.77
2018-12-11T08:57:08.724Z,86.42
2018-12-11T08:59:39.897Z,87.21
2018-12-11T09:02:10.790Z,86.35
2018-12-11T09:04:38.179Z,85.47
2018-12-11T09:07:05.562Z,85.18
2018-12-11T09:09:32.950Z,85.77
2018-12-11T09:12:03.632Z,84.31
2018-12-11T09:14:40.772Z,83.00
2018-12-11T09:17:10.204Z,83.61
2018-12-11T09:19:37.546Z,85.08
2018-12-11T09:22:08.477Z,84.39
2018-12-11T09:24:42.528Z,84.03
2018-12-11T09:27:11.658Z,84.36
2018-12-11T09:29:45.324Z,84.86
2018-12-11T09:32:18.512Z,84.95
2018-12-11T09:34:47.713Z,84.22
2018-12-11T09:37:21.541Z,83.93
2018-12-11T09:39:55.430Z,83.77
2018-12-11T09:42:29.448Z,83.63
2018-12-11T09:45:14.589Z,82.69
2018-12-11T09:47:47.782Z,83.48
2018-12-11T09:50:19.868Z,84.22
2018-12-11T09:52:50.952Z,84.41
2018-12-11T09:55:24.844Z,83.67
2018-12-11T09:57:58.760Z,83.83
2018-12-11T10:00:30.807Z,83.46
2018-12-11T10:03:01.769Z,83.53
2018-12-11T10:05:32.773Z,83.67
2018-12-11T10:08:03.836Z,82.25
2018-12-11T10:10:32.940Z,83.18
2018-12-11T10:13:11.769Z,80.54
2018-12-11T10:15:44.859Z,80.39
2018-12-11T10:20:51.134Z,76.77
2018-12-11T10:23:20.326Z,77.45
2018-12-11T10:25:55.980Z,77.81
2018-12-11T10:28:31.162Z,78.48
2018-12-11T10:31:05.060Z,79.15
2018-12-11T10:33:37.259Z,78.35
2018-12-11T10:36:06.382Z,80.71
2018-12-11T10:38:35.407Z,82.95
2018-12-11T10:41:06.287Z,83.77
2018-12-11T10:43:40.083Z,83.92
2018-12-11T10:46:13.306Z,85.11
2018-12-11T10:48:48.469Z,86.08
2018-12-11T10:51:28.680Z,86.80
2018-12-11T10:54:02.583Z,86.54
2018-12-11T10:59:35.676Z,88.38
2018-12-11T11:02:18.284Z,87.88
2018-12-11T11:04:51.656Z,88.20
2018-12-11T11:07:22.701Z,87.70
2018-12-11T11:09:54.857Z,87.39
2018-12-11T11:12:25.953Z,87.69
2018-12-11T11:14:59.953Z,86.25
2018-12-11T11:17:33.815Z,86.88
2018-12-11T11:22:37.048Z,86.98
2018-12-11T11:25:07.961Z,87.38
2018-12-11T11:27:41.492Z,87.71
2018-12-11T11:30:15.261Z,87.45
2018-12-11T11:32:48.363Z,88.47
2018-12-11T11:35:29.009Z,88.53
2018-12-11T11:38:02.416Z,88.16
2018-12-11T11:40:35.472Z,87.38
2018-12-11T11:43:09.444Z,87.11
2018-12-11T11:45:47.135Z,87.62
2018-12-11T11:48:21.282Z,86.81
2018-12-11T11:50:55.291Z,88.37
2018-12-11T11:53:42.055Z,87.98
2018-12-11T11:56:15.636Z,87.07
2018-12-11T11:58:43.031Z,87.65
2018-12-11T12:04:24.562Z,86.23
2018-12-11T12:06:58.541Z,86.95
2018-12-11T12:09:32.138Z,86.50
2018-12-11T12:15:02.147Z,87.12
2018-12-11T12:32:30.805Z,84.01
2018-12-11T12:35:04.585Z,83.56
2018-12-11T12:40:32.428Z,82.87
2018-12-11T12:43:16.220Z,83.55
2018-12-11T12:45:47.481Z,83.04
2018-12-11T12:48:14.868Z,82.53
2018-12-11T12:51:00.685Z,82.89
2018-12-11T12:56:33.393Z,81.31
2018-12-11T12:59:07.336Z,82.04
2018-12-11T13:01:41.139Z,82.73
2018-12-11T13:04:11.466Z,82.24
2018-12-11T13:06:40.831Z,82.64
2018-12-11T13:09:14.816Z,81.70
2018-12-11T13:11:43.497Z,80.51
2018-12-11T13:14:12.550Z,80.95
2018-12-11T13:16:43.540Z,81.27
2018-12-11T13:22:17.925Z,80.92
2018-12-11T13:24:51.239Z,80.42
2018-12-11T13:27:22.391Z,81.19
2018-12-11T13:29:56.119Z,80.60
2018-12-11T13:32:27.353Z,80.04
2018-12-11T13:34:58.452Z,81.46
2018-12-11T13:37:32.217Z,80.21
2018-12-11T13:40:01.449Z,80.27
2018-12-11T13:42:37.204Z,80.49
2018-12-11T13:45:06.749Z,81.18
2018-12-11T13:47:37.445Z,80.60
2018-12-11T13:50:08.648Z,79.92
2018-12-11T13:52:39.906Z,80.71
2018-12-11T13:55:15.176Z,80.78
2018-12-11T14:00:54.873Z,81.82
2018-12-11T14:03:28.271Z,82.02
2018-12-11T14:06:02.249Z,82.53
2018-12-11T14:08:33.364Z,84.29
2018-12-11T14:11:06.549Z,84.89
2018-12-11T14:13:40.266Z,85.19
2018-12-11T14:16:14.297Z,85.21
2018-12-11T14:18:47.692Z,85.79
2018-12-11T14:21:19.020Z,85.58
2018-12-11T14:26:24.693Z,84.75
2018-12-11T14:29:02.496Z,84.73
2018-12-11T14:31:36.078Z,85.17
2018-12-11T14:34:10.790Z,85.35
2018-12-11T14:36:40.234Z,84.83
2018-12-11T14:39:09.505Z,83.30
2018-12-11T14:41:44.102Z,84.36
2018-12-11T14:44:17.175Z,84.04
2018-12-11T14:46:48.409Z,85.32
2018-12-11T14:49:22.209Z,86.09
2018-12-11T14:51:53.627Z,85.21
2018-12-11T14:54:27.369Z,84.72
2018-12-11T14:57:01.296Z,85.77
2018-12-11T14:59:32.520Z,87.08
2018-12-11T15:02:07.365Z,87.50
2018-12-11T15:04:40.437Z,87.04
2018-12-11T15:07:11.436Z,88.08
2018-12-11T15:09:47.325Z,88.21
2018-12-11T15:12:25.140Z,87.67
2018-12-11T15:14:56.330Z,88.85
2018-12-11T15:17:29.916Z,89.12
2018-12-11T15:20:00.244Z,88.11
2018-12-11T15:22:34.288Z,88.44
2018-12-11T15:25:16.099Z,88.98
2018-12-11T15:30:22.169Z,87.91
2018-12-11T15:32:55.832Z,88.41
2018-12-11T15:35:29.033Z,88.02
2018-12-11T15:38:10.272Z,87.79
2018-12-11T15:40:41.023Z,88.28
2018-12-11T15:43:16.064Z,87.95
2018-12-11T15:45:52.017Z,88.54
2018-12-11T15:48:21.200Z,87.71
2018-12-11T15:50:50.016Z,89.02
2018-12-11T15:53:19.799Z,87.83
2018-12-11T15:58:51.762Z,89.81
2018-12-11T16:01:32.825Z,89.93
2018-12-11T16:04:03.321Z,89.79
2018-12-11T16:06:36.892Z,88.97
2018-12-11T16:09:10.985Z,89.88
2018-12-11T16:11:41.532Z,89.22
2018-12-11T16:14:11.691Z,89.82
2018-12-11T16:16:43.726Z,88.88
2018-12-11T16:19:12.949Z,89.34
2018-12-11T16:21:43.860Z,88.79
2018-12-11T16:24:15.092Z,89.39
2018-12-11T16:26:46.004Z,88.35
2018-12-11T16:34:48.909Z,88.77
2018-12-11T16:37:20.684Z,89.07
2018-12-11T16:39:51.184Z,89.30
2018-12-11T16:48:18.137Z,88.41
2018-12-11T16:53:49.876Z,89.34
2018-12-11T16:56:19.004Z,89.14
2018-12-11T16:58:52.596Z,88.54
2018-12-11T17:01:31.400Z,88.82
2018-12-11T17:04:00.557Z,88.60
2018-12-11T17:06:35.857Z,88.26
2018-12-11T17:09:11.384Z,88.61
2018-12-11T17:11:42.559Z,88.00
2018-12-11T17:14:17.384Z,88.24
2018-12-11T17:16:51.208Z,89.14
2018-12-11T17:19:25.134Z,88.80
2018-12-11T17:21:56.323Z,89.01
2018-12-11T17:24:25.547Z,87.96
2018-12-11T17:26:59.532Z,87.69
2018-12-11T17:29:33.553Z,87.51
2018-12-11T17:32:04.476Z,87.30
2018-12-11T17:34:36.519Z,87.01
2018-12-11T17:37:11.753Z,87.20
2018-12-11T17:39:42.652Z,87.79
2018-12-11T17:42:23.020Z,87.17
2018-12-11T17:44:53.812Z,86.96
2018-12-11T17:47:28.442Z,87.26
2018-12-11T17:53:01.883Z,87.70
2018-12-11T17:55:32.191Z,87.52
2018-12-11T17:58:03.130Z,87.46
2018-12-11T18:00:30.789Z,87.23
2018-12-11T18:06:15.038Z,87.77
2018-12-11T18:08:52.070Z,86.89
2018-12-11T18:11:22.593Z,86.96
2018-12-11T18:13:56.389Z,87.17
2018-12-11T18:16:26.711Z,86.23
2018-12-11T18:18:54.105Z,85.78
2018-12-11T18:21:25.071Z,86.49
2018-12-11T18:29:47.025Z,87.88
2018-12-11T18:32:24.909Z,86.76
2018-12-11T18:35:02.925Z,85.76
2018-12-11T18:37:51.501Z,84.87
2018-12-11T18:43:28.217Z,85.80
2018-12-11T18:46:01.425Z,85.32
2018-12-11T18:48:37.300Z,86.83
2018-12-11T18:51:11.219Z,86.30
2018-12-11T18:53:41.630Z,87.46
2018-12-11T18:56:13.813Z,86.29
2018-12-11T18:58:44.738Z,87.54
2018-12-11T19:01:15.776Z,87.56
2018-12-11T19:03:50.272Z,87.03
2018-12-11T19:06:23.592Z,87.62
2018-12-11T19:08:58.579Z,87.03
2018-12-11T19:11:37.332Z,86.77
2018-12-11T19:14:18.561Z,86.57
2018-12-11T19:16:52.533Z,86.68
2018-12-11T19:19:26.385Z,87.10
2018-12-11T19:24:58.645Z,87.81
2018-12-11T19:27:29.084Z,86.94
2018-12-11T19:29:56.544Z,88.37
2018-12-11T19:32:29.156Z,88.77
2018-12-11T19:34:58.233Z,87.90
2018-12-11T19:37:29.349Z,88.21
2018-12-11T19:40:09.774Z,88.36
2018-12-11T19:42:44.424Z,88.74
2018-12-11T19:45:13.423Z,87.98
2018-12-11T19:47:47.116Z,88.97
2018-12-11T19:50:20.235Z,87.19
2018-12-11T19:52:50.955Z,87.46
2018-12-11T19:55:24.557Z,88.14
2018-12-11T19:57:59.844Z,88.10
2018-12-11T20:00:42.404Z,87.94
2018-12-11T20:03:15.814Z,88.40
2018-12-11T20:05:49.228Z,89.23
2018-12-11T20:08:17.559Z,88.60
2018-12-11T20:10:52.800Z,89.20
2018-12-11T20:16:41.931Z,88.71
2018-12-11T20:28:04.920Z,88.26
2018-12-11T20:30:41.885Z,88.58
2018-12-11T20:33:09.342Z,88.18
2018-12-11T20:35:36.711Z,88.54
2018-12-11T20:38:04.105Z,89.21
2018-12-11T20:40:52.263Z,88.97
2018-12-11T20:43:34.550Z,88.95
2018-12-11T20:49:00.628Z,89.38
2018-12-11T20:54:27.367Z,88.23
2018-12-11T20:57:05.472Z,88.21
2018-12-11T21:02:28.793Z,88.34
2018-12-11T21:08:01.182Z,89.79
2018-12-11T21:10:28.570Z,90.64
2018-12-11T21:12:55.968Z,90.04
2018-12-11T21:15:23.364Z,90.34
2018-12-11T21:18:13.828Z,89.82
2018-12-11T21:21:00.035Z,89.95
2018-12-11T21:23:51.928Z,90.95
2018-12-11T21:26:20.270Z,90.50
2018-12-11T21:28:54.220Z,91.15
2018-12-11T21:31:32.967Z,89.69
2018-12-11T21:36:59.011Z,89.70
2018-12-11T21:39:33.109Z,89.48
2018-12-11T21:42:03.983Z,90.63
2018-12-11T21:44:32.351Z,88.91
2018-12-11T21:47:05.840Z,88.97
2018-12-11T21:49:39.212Z,88.93
2018-12-11T21:52:12.556Z,89.55
2018-12-11T21:54:39.941Z,88.07
2018-12-11T21:57:08.272Z,88.81
2018-12-11T21:59:37.583Z,88.43
2018-12-11T22:02:10.652Z,88.62
2018-12-11T22:04:49.469Z,88.16
2018-12-11T22:07:22.673Z,89.33
2018-12-11T22:10:07.339Z,88.86
2018-12-11T22:12:40.703Z,89.34
2018-12-11T22:15:09.456Z,88.84
2018-12-11T22:17:40.181Z,89.22
2018-12-11T22:20:15.183Z,89.46
2018-12-11T22:22:45.533Z,89.82
2018-12-11T22:25:19.541Z,89.82
2018-12-11T22:27:53.417Z,89.09
2018-12-11T22:30:24.587Z,89.07
2018-12-11T22:33:03.580Z,90.01
2018-12-11T22:35:33.910Z,90.12
2018-12-11T22:38:06.929Z,89.48
2018-12-11T22:40:40.688Z,90.28
2018-12-11T22:43:09.894Z,89.50
2018-12-11T22:45:38.786Z,89.82
2018-12-11T22:48:09.916Z,89.90
2018-12-11T22:50:43.820Z,89.15
2018-12-11T22:53:17.710Z,88.35
2018-12-11T22:55:49.023Z,89.43
2018-12-11T22:58:22.997Z,89.67
2018-12-11T23:00:53.274Z,89.69
2018-12-11T23:03:27.102Z,89.41
2018-12-11T23:06:06.053Z,88.87
2018-12-11T23:08:39.289Z,89.13
2018-12-11T23:11:09.804Z,89.81
2018-12-11T23:13:40.964Z,89.52
2018-12-11T23:16:12.004Z,89.96
2018-12-11T23:18:45.928Z,88.64
2018-12-11T23:21:19.039Z,89.30
2018-12-11T23:23:52.163Z,89.42
2018-12-11T23:26:23.475Z,90.27
2018-12-11T23:28:56.904Z,91.73
2018-12-11T23:31:33.356Z,92.04
2018-12-11T23:34:02.180Z,90.26
2018-12-11T23:36:35.976Z,90.69
2018-12-11T23:39:13.067Z,90.23
2018-12-11T23:41:44.175Z,91.03
2018-12-11T23:44:13.284Z,90.16
2018-12-11T23:46:42.453Z,90.32
2018-12-11T23:49:15.677Z,90.46
2018-12-11T23:51:55.630Z,89.91
2018-12-11T23:54:24.837Z,89.51
2018-12-11T23:56:58.044Z,90.28
2018-12-11T23:59:32.128Z,90.09
